Time;durP1;ratioP1;P1;durP2;ratioP2;P2;SDS_P1;SDS_P2;PMS_P1;PMS_P2;Temp;Humidity;BMP_temperature;BMP_pressure;BME280_temperature;BME280_humidity;BME280_pressure;Samples;Min_cycle;Max_cycle;Signal;HPM_P1;HPM_P2
2022/08/20 00:00:25;;;;;;;5.50;3.78;;;;;;;22.54;59.22;100206.53;5087683;28;20051;-71
2022/08/20 00:02:58;;;;;;;3.63;3.33;;;;;;;22.42;59.21;100180.78;5098168;28;20344;-70
2022/08/20 00:05:37;;;;;;;3.90;3.15;;;;;;;22.50;59.45;100203.31;5109685;28;20162;-71
2022/08/20 00:08:05;;;;;;;4.78;3.78;;;;;;;22.46;59.98;100198.38;5102217;28;20086;-71
2022/08/20 00:10:33;;;;;;;8.57;3.60;;;;;;;22.27;60.04;100165.13;5103465;28;20071;-70
2022/08/20 00:13:01;;;;;;;4.63;3.83;;;;;;;22.43;60.86;100191.44;5098648;28;20058;-71
2022/08/20 00:15:33;;;;;;;5.70;3.58;;;;;;;22.42;61.15;100195.13;5106794;27;20131;-71
2022/08/20 00:18:00;;;;;;;5.82;3.80;;;;;;;22.37;61.18;100194.72;5108920;28;20047;-70
2022/08/20 00:20:31;;;;;;;5.32;3.90;;;;;;;22.37;61.60;100198.28;5108939;28;20097;-70
2022/08/20 00:22:58;;;;;;;4.90;3.10;;;;;;;22.38;61.72;100201.81;5105994;28;20036;-70
2022/08/20 00:25:28;;;;;;;5.30;3.35;;;;;;;22.38;62.20;100209.91;5103655;28;20070;-71
2022/08/20 00:27:56;;;;;;;6.40;3.45;;;;;;;22.39;62.11;100201.66;5106892;28;20063;-70
2022/08/20 00:30:25;;;;;;;4.72;3.50;;;;;;;22.42;62.20;100203.22;5106294;28;20051;-70
2022/08/20 00:32:58;;;;;;;4.43;3.60;;;;;;;22.43;62.25;100204.06;5098564;28;20063;-71
2022/08/20 00:35:28;;;;;;;5.38;3.50;;;;;;;22.43;62.36;100201.38;5106453;28;21347;-70
2022/08/20 00:37:55;;;;;;;5.13;3.30;;;;;;;22.46;62.25;100201.06;5099584;28;20644;-70
2022/08/20 00:40:45;;;;;;;4.00;3.60;;;;;;;22.43;62.50;100207.63;5109845;28;20042;-70
2022/08/20 00:43:29;;;;;;;7.35;3.85;;;;;;;22.41;62.64;100206.91;5104881;28;20105;-71
2022/08/20 00:45:58;;;;;;;3.70;3.15;;;;;;;22.44;62.64;100206.63;5105858;27;20105;-69
2022/08/20 00:48:27;;;;;;;4.93;3.53;;;;;;;22.40;62.43;100197.13;5107276;28;20227;-70
2022/08/20 00:51:01;;;;;;;3.78;3.22;;;;;;;22.43;62.92;100194.13;5109255;28;20456;-71
2022/08/20 00:53:28;;;;;;;3.28;2.97;;;;;;;22.44;63.02;100203.06;5091082;28;20039;-70
2022/08/20 00:55:55;;;;;;;4.28;3.25;;;;;;;22.42;63.26;100207.75;5109246;28;20071;-71
2022/08/20 00:58:22;;;;;;;7.38;3.60;;;;;;;22.33;63.32;100193.34;5100994;27;20067;-71
2022/08/20 01:00:49;;;;;;;4.93;3.75;;;;;;;22.42;63.21;100211.31;5104621;27;20195;-72
2022/08/20 01:03:19;;;;;;;6.22;3.80;;;;;;;22.41;63.55;100215.00;5094782;28;20056;-70
2022/08/20 01:05:49;;;;;;;4.35;3.90;;;;;;;22.42;63.47;100215.84;5107498;27;20084;-70
2022/08/20 01:08:19;;;;;;;7.28;3.72;;;;;;;22.28;63.81;100193.81;5104292;27;20063;-68
2022/08/20 01:10:48;;;;;;;5.22;3.75;;;;;;;22.41;63.67;100220.41;5100320;28;20068;-70
2022/08/20 01:13:19;;;;;;;5.30;3.15;;;;;;;22.40;63.61;100218.72;5103484;28;20126;-71
2022/08/20 01:15:49;;;;;;;4.38;3.42;;;;;;;22.41;63.62;100220.41;5108129;28;20109;-71
2022/08/20 01:18:24;;;;;;;5.43;3.25;;;;;;;22.35;63.96;100207.53;5105592;27;20341;-70
2022/08/20 01:21:01;;;;;;;4.70;3.30;;;;;;;22.51;63.55;100221.19;5100586;27;20135;-71
2022/08/20 01:23:50;;;;;;;3.72;3.40;;;;;;;22.54;63.39;100230.81;5102239;27;20148;-69
2022/08/20 01:26:22;;;;;;;4.75;3.50;;;;;;;22.44;63.57;100209.31;5107715;27;20078;-70
2022/08/20 01:28:57;;;;;;;5.80;3.47;;;;;;;22.57;63.44;100230.53;5104828;28;20499;-70
2022/08/20 01:31:32;;;;;;;3.78;3.03;;;;;;;22.48;63.64;100216.09;5106483;28;20464;-70
2022/08/20 01:34:01;;;;;;;3.92;3.28;;;;;;;22.65;63.36;100238.72;5107012;27;20047;-70
2022/08/20 01:36:35;;;;;;;6.97;3.85;;;;;;;22.63;63.21;100227.22;5104492;27;20501;-70
2022/08/20 01:39:06;;;;;;;4.40;3.40;;;;;;;22.68;63.34;100233.84;5106094;27;20126;-70
2022/08/20 01:41:54;;;;;;;3.60;3.25;;;;;;;22.68;63.24;100231.13;5104254;28;20123;-71
2022/08/20 01:44:22;;;;;;;3.30;2.97;;;;;;;22.55;63.30;100219.03;5101996;28;20040;-71
2022/08/20 01:46:54;;;;;;;4.20;3.40;;;;;;;22.40;63.48;100192.56;5107423;27;20063;-70
2022/08/20 01:49:28;;;;;;;4.63;3.47;;;;;;;22.62;63.69;100239.88;5108175;27;20057;-70
2022/08/20 01:51:59;;;;;;;7.30;3.60;;;;;;;22.59;63.87;100240.16;5103529;28;20064;-69
2022/08/20 01:54:26;;;;;;;4.85;3.25;;;;;;;22.52;64.44;100235.53;5110496;27;20546;-70
2022/08/20 01:57:03;;;;;;;4.13;3.45;;;;;;;22.35;64.64;100212.94;5104379;27;20047;-71
2022/08/20 01:59:30;;;;;;;5.63;3.97;;;;;;;22.33;64.93;100221.19;5086360;28;20510;-71
2022/08/20 02:01:58;;;;;;;4.75;3.40;;;;;;;22.43;64.99;100240.00;5104521;27;20131;-71
2022/08/20 02:04:26;;;;;;;4.18;3.60;;;;;;;22.42;64.95;100243.69;5104392;27;20059;-69
2022/08/20 02:06:59;;;;;;;6.10;3.70;;;;;;;22.39;65.29;100239.44;5111220;27;20496;-71
2022/08/20 02:09:28;;;;;;;4.80;3.33;;;;;;;22.31;65.16;100228.56;5106428;27;20160;-70
2022/08/20 02:11:56;;;;;;;3.70;3.30;;;;;;;22.43;65.21;100244.53;5106826;27;20109;-70
2022/08/20 02:14:25;;;;;;;4.38;3.55;;;;;;;22.50;65.10;100251.03;5105059;27;20568;-69
2022/08/20 02:16:52;;;;;;;5.07;3.92;;;;;;;22.54;64.91;100239.78;5108319;27;20059;-68
2022/08/20 02:19:49;;;;;;;5.13;3.65;;;;;;;22.53;64.63;100245.31;5102285;28;20380;-71
2022/08/20 02:22:39;;;;;;;5.68;3.72;;;;;;;22.50;64.88;100240.25;5103988;27;20142;-71
2022/08/20 02:25:15;;;;;;;4.20;3.70;;;;;;;22.38;64.94;100218.00;5102409;27;20142;-72
2022/08/20 02:27:44;;;;;;;5.28;3.58;;;;;;;22.43;65.27;100234.59;5104260;27;20079;-69
2022/08/20 02:30:17;;;;;;;3.77;3.40;;;;;;;22.44;65.15;100239.00;5113844;27;20131;-70
2022/08/20 02:32:53;;;;;;;4.43;3.40;;;;;;;22.42;65.10;100249.09;5101498;27;20047;-69
2022/08/20 02:35:23;;;;;;;4.75;3.38;;;;;;;22.40;65.45;100245.69;5106990;27;20041;-70
2022/08/20 02:37:50;;;;;;;4.82;3.85;;;;;;;22.42;65.70;100253.63;5104020;28;20079;-71
2022/08/20 02:40:20;;;;;;;4.07;3.47;;;;;;;22.37;65.69;100240.59;5101461;28;20092;-71
2022/08/20 02:42:58;;;;;;;5.03;3.63;;;;;;;22.38;65.99;100244.97;5101737;28;20991;-71
2022/08/20 02:45:26;;;;;;;4.28;3.47;;;;;;;22.41;66.06;100252.78;5101603;27;20063;-70
2022/08/20 02:47:52;;;;;;;4.50;3.63;;;;;;;22.42;66.26;100259.03;5100514;27;20051;-71
2022/08/20 02:50:22;;;;;;;5.32;3.65;;;;;;;22.35;66.33;100243.44;5106805;28;20112;-70
2022/08/20 02:52:49;;;;;;;4.30;3.40;;;;;;;22.44;66.39;100259.72;5100825;27;20040;-69
2022/08/20 02:55:18;;;;;;;4.22;3.67;;;;;;;22.47;66.37;100268.38;5109697;27;20054;-71
2022/08/20 02:57:58;;;;;;;4.30;3.15;;;;;;;22.51;66.19;100264.34;5101631;28;20635;-71
2022/08/20 03:00:29;;;;;;;4.57;3.72;;;;;;;22.52;66.43;100270.59;5101473;27;20416;-71
2022/08/20 03:03:05;;;;;;;5.38;3.72;;;;;;;22.51;66.47;100264.34;5098049;28;20039;-71
2022/08/20 03:05:31;;;;;;;5.53;3.53;;;;;;;22.43;66.38;100258.03;5099956;28;20097;-70
2022/08/20 03:07:58;;;;;;;4.45;4.05;;;;;;;22.36;66.75;100241.59;5101966;28;20046;-70
2022/08/20 03:10:30;;;;;;;3.90;3.58;;;;;;;22.43;67.17;100258.03;5102529;28;20140;-69
2022/08/20 03:12:59;;;;;;;4.18;3.88;;;;;;;22.34;66.90;100241.75;5102930;27;20085;-71
2022/08/20 03:15:27;;;;;;;5.32;3.90;;;;;;;22.42;66.98;100254.47;5097797;28;20130;-70
2022/08/20 03:17:54;;;;;;;4.50;4.10;;;;;;;22.30;66.99;100237.66;5100960;28;20059;-70
2022/08/20 03:20:22;;;;;;;4.32;3.92;;;;;;;22.35;67.12;100250.72;5095796;28;20043;-70
2022/08/20 03:22:50;;;;;;;5.28;4.45;;;;;;;22.27;67.33;100254.16;5099595;28;20135;-70
2022/08/20 03:25:17;;;;;;;5.45;4.72;;;;;;;22.31;67.43;100263.66;5104324;28;20070;-71
2022/08/20 03:27:44;;;;;;;5.70;4.22;;;;;;;22.26;67.40;100254.28;5098716;28;20116;-71
2022/08/20 03:30:13;;;;;;;5.18;4.68;;;;;;;22.35;67.58;100264.19;5100321;27;20097;-68
2022/08/20 03:32:40;;;;;;;4.75;4.35;;;;;;;22.34;67.16;100257.94;5097408;28;20158;-70
2022/08/20 03:35:15;;;;;;;4.97;4.57;;;;;;;22.40;67.20;100267.28;5103546;28;20782;-68
2022/08/20 03:37:42;;;;;;;5.25;4.40;;;;;;;22.25;67.11;100242.66;5095872;28;20090;-71
2022/08/20 03:40:22;;;;;;;4.65;4.13;;;;;;;22.37;67.30;100264.88;5102958;28;20511;-69
2022/08/20 03:42:51;;;;;;;5.03;4.63;;;;;;;22.35;67.33;100264.19;5103440;28;20453;-70
2022/08/20 03:45:18;;;;;;;4.82;4.30;;;;;;;22.32;67.61;100264.50;5099687;28;20105;-70
2022/08/20 03:47:47;;;;;;;5.55;4.70;;;;;;;22.29;67.75;100267.47;5102381;28;20089;-71
2022/08/20 03:50:14;;;;;;;5.05;4.53;;;;;;;22.27;67.94;100264.09;5110989;28;20112;-70
2022/08/20 03:52:52;;;;;;;5.20;4.72;;;;;;;22.25;68.06;100263.38;5109834;27;20086;-71
2022/08/20 03:55:21;;;;;;;7.75;6.90;;;;;;;22.22;68.10;100266.38;5111314;28;20100;-73
2022/08/20 03:57:59;;;;;;;6.55;5.95;;;;;;;22.12;68.13;100268.28;5111096;27;20040;-69
2022/08/20 04:00:33;;;;;;;7.57;6.25;;;;;;;22.07;68.69;100267.88;5111149;28;20487;-71
2022/08/20 04:03:00;;;;;;;9.35;8.45;;;;;;;22.08;68.77;100272.25;5105332;27;20499;-71
2022/08/20 04:05:29;;;;;;;8.73;7.90;;;;;;;22.01;68.95;100256.69;5104614;27;20043;-71
2022/08/20 04:07:59;;;;;;;9.23;8.32;;;;;;;22.00;68.78;100251.44;5103355;27;21544;-68
2022/08/20 04:10:29;;;;;;;10.30;9.10;;;;;;;21.97;69.21;100251.72;5103997;27;20091;-70
2022/08/20 04:12:56;;;;;;;10.15;9.18;;;;;;;21.97;69.20;100255.25;5101758;27;20533;-68
2022/08/20 04:15:23;;;;;;;9.73;8.82;;;;;;;22.03;69.16;100270.03;5101609;27;20043;-69
2022/08/20 04:17:50;;;;;;;8.23;7.38;;;;;;;22.02;69.59;100265.63;5098773;27;20036;-70
2022/08/20 04:20:21;;;;;;;10.10;9.10;;;;;;;22.07;69.49;100274.09;5109482;27;20131;-69
2022/08/20 04:22:52;;;;;;;10.50;9.35;;;;;;;21.79;70.19;100251.63;5104492;27;20536;-70
2022/08/20 04:25:30;;;;;;;9.05;8.15;;;;;;;21.56;71.68;100271.84;5097938;27;20132;-70
2022/08/20 04:28:05;;;;;;;8.80;8.07;;;;;;;21.24;72.84;100264.97;5101694;27;20534;-70
2022/08/20 04:30:33;;;;;;;11.05;8.32;;;;;;;20.92;74.68;100269.75;5103068;27;20090;-69
2022/08/20 04:33:00;;;;;;;10.63;9.52;;;;;;;20.64;76.51;100269.56;5111204;27;20043;-69
2022/08/20 04:35:28;;;;;;;10.75;9.65;;;;;;;20.49;77.41;100272.78;5098589;27;20132;-70
2022/08/20 04:38:05;;;;;;;10.55;9.23;;;;;;;20.27;78.18;100246.97;5102173;27;20096;-70
2022/08/20 04:40:52;;;;;;;9.65;8.75;;;;;;;20.22;78.42;100249.19;5099255;27;20048;-70
2022/08/20 04:43:21;;;;;;;10.00;9.00;;;;;;;20.38;78.86;100268.38;5097423;27;20111;-70
2022/08/20 04:45:50;;;;;;;10.30;9.30;;;;;;;20.30;78.41;100260.97;5102104;27;20083;-73
2022/08/20 04:48:19;;;;;;;10.95;9.88;;;;;;;20.44;78.63;100273.22;5101152;27;20432;-74
2022/08/20 04:50:46;;;;;;;10.90;9.90;;;;;;;20.43;78.90;100292.19;5100823;27;20143;-74
2022/08/20 04:53:16;;;;;;;11.18;10.15;;;;;;;20.39;79.73;100280.84;5100104;27;20083;-75
2022/08/20 04:55:46;;;;;;;13.07;10.73;;;;;;;20.33;80.61;100273.28;5102044;27;20533;-75
2022/08/20 04:58:19;;;;;;;11.20;10.05;;;;;;;20.39;79.83;100280.84;5095047;27;20487;-73
2022/08/20 05:00:49;;;;;;;11.68;10.48;;;;;;;20.43;80.74;100286.81;5098419;27;20136;-73
2022/08/20 05:03:16;;;;;;;12.25;10.85;;;;;;;20.38;80.84;100283.66;5102207;28;20343;-73
2022/08/20 05:05:45;;;;;;;11.88;10.68;;;;;;;20.42;81.08;100294.03;5105080;27;20048;-71
2022/08/20 05:08:12;;;;;;;11.40;10.30;;;;;;;20.43;80.73;100290.34;5114182;27;20070;-72
2022/08/20 05:10:46;;;;;;;9.55;8.63;;;;;;;20.46;81.73;100298.13;5104866;28;20655;-73
2022/08/20 05:13:12;;;;;;;9.90;8.90;;;;;;;20.40;82.10;100292.47;5110731;28;20044;-73
2022/08/20 05:15:39;;;;;;;9.30;8.30;;;;;;;20.42;81.83;100306.63;5106727;27;20103;-73
2022/08/20 05:18:07;;;;;;;9.27;8.38;;;;;;;20.46;81.50;100306.19;5108361;28;20043;-72
2022/08/20 05:20:40;;;;;;;8.55;7.75;;;;;;;20.36;81.21;100286.50;5109585;27;20121;-76
2022/08/20 05:23:09;;;;;;;9.32;7.55;;;;;;;20.56;80.84;100309.78;5109831;28;20047;-75
2022/08/20 05:25:37;;;;;;;8.52;7.72;;;;;;;20.73;80.28;100310.09;5110745;28;20109;-74
2022/08/20 05:28:08;;;;;;;10.07;7.30;;;;;;;20.77;79.96;100319.59;5110439;28;20158;-75
2022/08/20 05:30:43;;;;;;;8.43;7.63;;;;;;;20.81;79.63;100307.53;5109523;27;20086;-72
2022/08/20 05:33:15;;;;;;;8.85;8.05;;;;;;;20.84;79.09;100297.34;5102364;28;20052;-73
2022/08/20 05:35:43;;;;;;;8.70;7.80;;;;;;;20.94;78.22;100308.97;5107600;27;20052;-74
2022/08/20 05:38:12;;;;;;;9.02;7.97;;;;;;;21.18;77.69;100327.41;5109098;28;20079;-73
2022/08/20 05:40:41;;;;;;;8.93;8.03;;;;;;;21.22;78.34;100330.72;5109682;28;20056;-76
2022/08/20 05:43:08;;;;;;;9.27;8.38;;;;;;;21.08;79.17;100323.88;5110261;27;20094;-73
2022/08/20 05:45:37;;;;;;;11.02;10.05;;;;;;;21.16;78.17;100329.41;5087917;28;20039;-74
2022/08/20 05:48:13;;;;;;;9.30;8.40;;;;;;;21.05;79.23;100339.47;5110841;27;20122;-75
2022/08/20 05:50:42;;;;;;;8.43;7.57;;;;;;;20.84;81.22;100340.41;5108332;28;20101;-73
2022/08/20 05:53:10;;;;;;;9.05;8.15;;;;;;;20.56;83.19;100330.44;5107565;27;20075;-74
2022/08/20 05:55:38;;;;;;;10.30;9.40;;;;;;;20.62;83.38;100357.63;5103910;28;20059;-70
2022/08/20 05:58:15;;;;;;;10.13;9.13;;;;;;;20.49;85.34;100340.88;5110741;27;20071;-72
2022/08/20 06:00:42;;;;;;;11.82;10.73;;;;;;;20.26;86.93;100325.94;5109523;28;20078;-74
2022/08/20 06:05:54;;;;;;;11.73;10.63;;;;;;;20.38;86.72;100342.84;5101094;28;20075;-71
2022/08/20 06:08:20;;;;;;;12.48;11.27;;;;;;;20.48;86.21;100336.50;5109025;27;20085;-76
2022/08/20 06:10:47;;;;;;;12.45;11.18;;;;;;;20.69;84.43;100335.56;5107054;28;20051;-74
2022/08/20 06:13:13;;;;;;;11.60;10.50;;;;;;;20.84;82.84;100323.41;5108850;28;20078;-74
2022/08/20 06:15:40;;;;;;;10.43;9.43;;;;;;;20.87;81.24;100313.22;5103007;27;20452;-75
2022/08/20 06:18:09;;;;;;;10.68;9.57;;;;;;;21.10;79.89;100329.94;5106903;28;20483;-73
2022/08/20 06:20:54;;;;;;;11.07;10.02;;;;;;;21.07;81.04;100330.25;5100652;28;20044;-73
2022/08/20 06:23:24;;;;;;;11.50;10.43;;;;;;;21.07;81.03;100346.41;5108141;27;20044;-75
2022/08/20 06:25:52;;;;;;;11.63;10.63;;;;;;;21.05;81.76;100348.41;5108451;28;20062;-70
2022/08/20 06:28:19;;;;;;;10.95;9.95;;;;;;;21.13;80.23;100353.06;5105639;28;20043;-70
2022/08/20 06:30:45;;;;;;;12.40;11.20;;;;;;;21.22;80.06;100349.56;5103343;28;20082;-73
2022/08/20 06:33:12;;;;;;;11.93;10.77;;;;;;;21.26;78.93;100357.22;5107185;27;20116;-73
2022/08/20 06:35:39;;;;;;;11.07;9.68;;;;;;;21.08;79.60;100342.72;5109895;27;20052;-73
2022/08/20 06:38:08;;;;;;;11.18;10.07;;;;;;;21.04;80.68;100352.06;5107849;27;20051;-74
2022/08/20 06:40:34;;;;;;;12.07;10.85;;;;;;;20.95;81.29;100352.91;5108809;28;20056;-71
2022/08/20 06:43:01;;;;;;;11.45;10.32;;;;;;;20.99;81.16;100352.47;5108082;27;20055;-71
2022/08/20 06:45:31;;;;;;;11.50;10.40;;;;;;;21.08;81.39;100360.72;5103771;28;20040;-73
2022/08/20 06:48:00;;;;;;;10.85;9.55;;;;;;;21.36;79.72;100357.22;5110390;27;20063;-73
2022/08/20 06:50:31;;;;;;;11.05;9.80;;;;;;;21.55;78.80;100361.75;5110940;28;20479;-73
2022/08/20 06:52:58;;;;;;;10.88;9.82;;;;;;;21.66;78.48;100357.06;5119110;27;20048;-72
2022/08/20 06:55:25;;;;;;;10.45;9.45;;;;;;;21.74;78.50;100358.16;5112632;28;20043;-73
2022/08/20 06:58:00;;;;;;;10.68;9.68;;;;;;;21.62;78.39;100357.47;5108229;27;20043;-72
2022/08/20 07:00:30;;;;;;;10.23;9.27;;;;;;;21.49;79.35;100344.31;5107597;27;20723;-73
2022/08/20 07:02:59;;;;;;;10.25;8.93;;;;;;;21.67;78.12;100350.69;5104964;28;20817;-72
2022/08/20 07:05:28;;;;;;;10.90;9.82;;;;;;;21.57;77.99;100340.88;5092102;28;20127;-72
2022/08/20 07:07:55;;;;;;;11.05;10.05;;;;;;;21.55;78.59;100359.06;5102648;27;20115;-72
2022/08/20 07:10:23;;;;;;;10.23;9.23;;;;;;;21.48;78.81;100355.22;5105909;27;20460;-72
2022/08/20 07:12:50;;;;;;;9.27;8.45;;;;;;;21.49;79.02;100359.63;5107776;28;20054;-72
2022/08/20 07:15:19;;;;;;;10.35;9.35;;;;;;;21.51;78.72;100360.34;5102481;28;20048;-72
2022/08/20 07:17:55;;;;;;;10.65;9.65;;;;;;;21.44;78.60;100354.66;5108213;27;20089;-72
2022/08/20 07:20:28;;;;;;;12.30;10.43;;;;;;;21.50;78.42;100364.03;5085301;28;20055;-70
2022/08/20 07:22:54;;;;;;;12.18;9.85;;;;;;;21.56;77.68;100363.47;5104295;27;20618;-73
2022/08/20 07:25:21;;;;;;;14.50;10.43;;;;;;;21.66;77.70;100361.59;5101374;28;20091;-72
2022/08/20 07:27:49;;;;;;;10.00;9.10;;;;;;;21.86;76.94;100367.81;5103338;28;20043;-73
2022/08/20 07:33:21;;;;;;;10.57;9.57;;;;;;;22.10;74.66;100354.72;5101947;28;20074;-70
2022/08/20 07:35:48;;;;;;;10.13;9.32;;;;;;;22.21;74.94;100367.16;5107150;28;20039;-72
2022/08/20 07:38:24;;;;;;;11.27;10.18;;;;;;;22.26;74.45;100371.13;5087555;28;20232;-72
2022/08/20 07:40:56;;;;;;;10.40;9.40;;;;;;;22.22;74.55;100356.22;5106909;28;20162;-72
2022/08/20 07:43:23;;;;;;;10.45;9.45;;;;;;;22.26;74.38;100363.03;5107036;28;20040;-72
2022/08/20 07:45:59;;;;;;;10.45;9.55;;;;;;;22.33;73.37;100368.72;5105789;28;20453;-72
2022/08/20 07:48:29;;;;;;;9.70;8.90;;;;;;;22.41;72.88;100376.91;5106305;28;20051;-72
2022/08/20 07:50:59;;;;;;;10.25;9.35;;;;;;;22.55;71.78;100376.41;5107295;28;20188;-73
2022/08/20 07:53:26;;;;;;;9.93;9.02;;;;;;;22.53;72.06;100353.25;5086547;28;20109;-73
2022/08/20 07:55:57;;;;;;;9.77;8.88;;;;;;;22.92;70.57;100364.75;5107121;28;20055;-73
2022/08/20 07:58:25;;;;;;;9.23;8.45;;;;;;;23.37;68.90;100362.84;5109288;28;20074;-74
2022/08/20 08:00:58;;;;;;;8.38;7.60;;;;;;;23.99;66.09;100374.50;5107228;28;20051;-73
2022/08/20 08:03:26;;;;;;;8.18;7.38;;;;;;;24.68;64.45;100364.59;5106079;28;20040;-73
2022/08/20 08:06:13;;;;;;;7.65;6.95;;;;;;;25.63;59.80;100363.31;5107160;28;20044;-74
2022/08/20 08:08:42;;;;;;;7.68;7.00;;;;;;;25.93;57.12;100365.34;5108898;28;20075;-75
2022/08/20 08:11:10;;;;;;;6.13;5.47;;;;;;;26.18;57.64;100353.41;5106821;28;20051;-74
2022/08/20 08:13:40;;;;;;;8.55;6.40;;;;;;;26.39;55.77;100366.44;5103271;28;20139;-74
2022/08/20 08:16:08;;;;;;;5.78;5.28;;;;;;;26.32;53.97;100364.59;5104887;28;20048;-74
2022/08/20 08:18:43;;;;;;;5.75;5.20;;;;;;;26.04;53.88;100366.81;5105348;28;20483;-73
2022/08/20 08:21:11;;;;;;;4.85;4.45;;;;;;;25.70;55.68;100372.44;5081053;28;20506;-73
2022/08/20 08:23:43;;;;;;;4.65;4.25;;;;;;;25.44;55.10;100364.47;5103525;28;20062;-72
2022/08/20 08:26:14;;;;;;;3.38;3.10;;;;;;;25.07;55.42;100373.03;5106367;28;20071;-72
2022/08/20 08:28:45;;;;;;;4.15;3.75;;;;;;;25.03;56.06;100364.38;5106049;28;20056;-75
2022/08/20 08:31:13;;;;;;;4.22;3.67;;;;;;;24.97;57.75;100373.19;5109378;28;20078;-75
2022/08/20 08:33:40;;;;;;;4.57;4.15;;;;;;;24.83;58.23;100380.06;5105773;28;20044;-75
2022/08/20 08:36:10;;;;;;;4.70;4.25;;;;;;;24.75;57.67;100357.50;5108411;28;20127;-73
2022/08/20 08:38:39;;;;;;;3.60;3.30;;;;;;;24.64;56.66;100349.69;5091400;27;20081;-74
2022/08/20 08:41:19;;;;;;;4.07;3.78;;;;;;;24.71;57.61;100375.94;5111618;28;20082;-74
2022/08/20 08:43:51;;;;;;;5.10;4.70;;;;;;;24.69;58.66;100375.28;5116133;27;20136;-76
2022/08/20 08:46:24;;;;;;;5.90;5.40;;;;;;;24.62;60.05;100373.38;5110388;27;20040;-74
2022/08/20 08:48:55;;;;;;;5.15;4.75;;;;;;;24.60;59.82;100369.97;5110466;27;20463;-75
2022/08/20 08:51:58;;;;;;;5.60;5.20;;;;;;;24.60;59.97;100373.53;5111178;27;20047;-75
2022/08/20 08:54:28;;;;;;;6.55;5.95;;;;;;;24.39;61.29;100356.88;5087671;28;20109;-72
2022/08/20 08:56:55;;;;;;;7.85;6.82;;;;;;;24.68;61.51;100370.03;5111057;28;20075;-74
2022/08/20 08:59:22;;;;;;;7.43;5.90;;;;;;;24.58;60.51;100380.97;5111221;27;20079;-75
2022/08/20 09:01:53;;;;;;;6.55;5.85;;;;;;;24.55;61.01;100383.16;5105904;27;20067;-75
2022/08/20 09:04:31;;;;;;;6.20;5.60;;;;;;;24.60;59.79;100354.56;5103082;28;20044;-73
2022/08/20 09:07:00;;;;;;;7.38;5.63;;;;;;;24.81;60.66;100383.94;5107674;28;20074;-75
2022/08/20 09:09:34;;;;;;;7.43;6.47;;;;;;;24.56;62.97;100379.41;5108485;27;20516;-75
2022/08/20 09:12:22;;;;;;;6.97;6.25;;;;;;;24.26;64.69;100343.75;5107199;27;20086;-73
2022/08/20 09:14:50;;;;;;;6.15;5.55;;;;;;;24.65;64.45;100384.72;5106183;28;20052;-74
2022/08/20 09:17:20;;;;;;;6.20;5.60;;;;;;;24.51;64.36;100388.03;5088972;28;20115;-69
2022/08/20 09:19:48;;;;;;;5.60;4.80;;;;;;;24.29;63.79;100383.19;5103200;28;20048;-70
2022/08/20 09:22:17;;;;;;;5.72;5.15;;;;;;;24.13;64.75;100389.31;5108183;28;20048;-71
2022/08/20 09:24:44;;;;;;;6.07;5.13;;;;;;;24.19;64.83;100385.97;5110657;27;20048;-73
2022/08/20 09:27:11;;;;;;;6.22;5.55;;;;;;;24.21;64.66;100380.41;5108616;28;20078;-72
2022/08/20 09:29:38;;;;;;;7.00;5.50;;;;;;;24.02;65.03;100363.38;5107500;28;20086;-71
2022/08/20 09:32:15;;;;;;;7.20;4.80;;;;;;;24.29;64.95;100375.91;5108408;28;20056;-71
2022/08/20 09:34:50;;;;;;;7.22;4.88;;;;;;;24.67;64.23;100387.28;5110722;28;20055;-71
2022/08/20 09:37:19;;;;;;;5.45;4.95;;;;;;;24.62;62.89;100373.38;5117672;27;20641;-73
2022/08/20 09:39:47;;;;;;;5.45;4.65;;;;;;;24.57;63.00;100376.56;5108476;27;20134;-75
2022/08/20 09:42:17;;;;;;;5.82;3.50;;;;;;;24.71;60.74;100372.41;5108752;28;20113;-75
2022/08/20 09:44:45;;;;;;;3.70;3.08;;;;;;;24.75;58.05;100352.09;5106423;28;20822;-74
2022/08/20 09:47:11;;;;;;;3.63;3.33;;;;;;;24.79;58.75;100348.91;5102417;27;20051;-74
2022/08/20 09:49:39;;;;;;;2.70;2.50;;;;;;;24.89;58.12;100345.19;5106357;27;20868;-73
2022/08/20 09:52:09;;;;;;;2.22;2.03;;;;;;;25.25;55.35;100362.91;5103902;27;20047;-72
2022/08/20 09:54:38;;;;;;;4.63;2.10;;;;;;;25.25;55.22;100359.34;5103811;28;20096;-72
2022/08/20 09:57:13;;;;;;;5.00;2.60;;;;;;;25.22;55.01;100349.69;5110720;27;20043;-74
2022/08/20 09:59:39;;;;;;;2.03;1.85;;;;;;;25.54;54.82;100351.56;5108476;28;20079;-74
2022/08/20 10:02:06;;;;;;;3.30;1.90;;;;;;;25.82;54.00;100342.09;5108680;28;20078;-71
2022/08/20 10:04:33;;;;;;;3.40;2.10;;;;;;;26.13;52.12;100330.53;5109442;27;20044;-73
2022/08/20 10:06:59;;;;;;;2.53;2.28;;;;;;;26.47;51.50;100350.09;5106190;28;20123;-72
2022/08/20 10:09:26;;;;;;;2.15;1.92;;;;;;;26.35;50.92;100320.81;5108784;28;20474;-74
2022/08/20 10:11:52;;;;;;;3.30;1.90;;;;;;;26.19;50.87;100337.97;5107434;28;20087;-75
2022/08/20 10:14:19;;;;;;;2.33;2.13;;;;;;;25.73;52.49;100320.59;5112522;27;20035;-71
2022/08/20 10:16:45;;;;;;;2.20;2.00;;;;;;;25.81;52.22;100345.00;5108046;27;20051;-71
2022/08/20 10:19:12;;;;;;;2.55;2.10;;;;;;;25.85;52.18;100343.63;5109258;27;20543;-71
2022/08/20 10:21:39;;;;;;;1.90;1.80;;;;;;;25.76;51.41;100317.53;5105568;28;20620;-71
2022/08/20 10:24:05;;;;;;;2.58;1.40;;;;;;;25.91;50.74;100332.09;5105800;27;20067;-68
2022/08/20 10:26:32;;;;;;;1.67;1.58;;;;;;;25.97;50.58;100336.00;5107172;28;20112;-71
2022/08/20 10:28:58;;;;;;;2.10;2.00;;;;;;;25.67;50.88;100322.09;5108029;28;20138;-72
2022/08/20 10:31:25;;;;;;;1.80;1.70;;;;;;;25.67;51.26;100338.38;5106498;28;20098;-72
2022/08/20 10:33:51;;;;;;;2.60;2.30;;;;;;;25.71;50.95;100325.34;5102851;27;20149;-71
2022/08/20 10:36:18;;;;;;;2.65;1.80;;;;;;;25.75;50.62;100334.81;5107998;27;20044;-69
2022/08/20 10:38:47;;;;;;;2.00;1.70;;;;;;;25.74;50.61;100322.28;5105928;28;20075;-71
2022/08/20 10:41:14;;;;;;;1.92;1.83;;;;;;;25.95;50.56;100332.59;5110196;27;20400;-71
2022/08/20 10:43:40;;;;;;;2.30;1.98;;;;;;;25.80;51.24;100333.31;5106756;28;20051;-71
2022/08/20 10:46:07;;;;;;;2.53;1.70;;;;;;;25.38;53.64;100328.03;5107337;27;20207;-75
2022/08/20 10:48:34;;;;;;;2.00;1.90;;;;;;;24.57;54.80;100306.16;5090214;28;20428;-72
2022/08/20 10:51:01;;;;;;;4.45;2.10;;;;;;;24.69;56.05;100331.09;5116412;27;20499;-75
2022/08/20 10:53:27;;;;;;;1.73;1.63;;;;;;;24.99;54.92;100324.25;5110608;27;20096;-76
2022/08/20 10:55:56;;;;;;;3.92;2.00;;;;;;;25.41;54.71;100335.81;5091061;28;20109;-73
2022/08/20 10:58:24;;;;;;;1.95;1.40;;;;;;;25.69;52.02;100314.66;5107190;28;20048;-75
2022/08/20 11:00:51;;;;;;;1.52;1.42;;;;;;;25.98;52.15;100333.09;5108010;27;20079;-75
2022/08/20 11:03:19;;;;;;;1.85;1.63;;;;;;;25.97;51.39;100328.69;5100880;28;20051;-72
2022/08/20 11:05:46;;;;;;;5.13;1.90;;;;;;;25.83;51.00;100313.94;5100710;28;20104;-71
2022/08/20 11:08:13;;;;;;;3.20;1.90;;;;;;;25.92;51.93;100322.09;5104879;28;20079;-72
2022/08/20 11:10:39;;;;;;;1.60;1.50;;;;;;;25.81;51.41;100317.88;5110476;27;20052;-73
2022/08/20 11:13:07;;;;;;;1.73;1.63;;;;;;;25.86;50.54;100331.75;5103313;27;20048;-71
2022/08/20 11:15:39;;;;;;;1.77;1.65;;;;;;;25.68;49.02;100318.38;5102903;28;20035;-70
2022/08/20 11:18:07;;;;;;;3.40;2.80;;;;;;;25.52;49.13;100321.06;5102927;27;20043;-73
2022/08/20 11:20:34;;;;;;;1.58;1.40;;;;;;;25.44;49.68;100327.34;5102162;28;20048;-73
2022/08/20 11:23:01;;;;;;;1.45;1.35;;;;;;;25.32;50.78;100327.88;5104364;28;20040;-73
2022/08/20 11:25:27;;;;;;;2.40;1.50;;;;;;;25.29;51.46;100333.63;5107175;27;20503;-73
2022/08/20 11:27:55;;;;;;;2.08;1.70;;;;;;;25.31;51.78;100315.31;5102892;28;20475;-73
2022/08/20 11:30:31;;;;;;;3.17;1.98;;;;;;;25.80;51.31;100321.59;5083318;28;20079;-71
2022/08/20 11:32:59;;;;;;;3.08;1.60;;;;;;;26.06;50.22;100324.94;5106202;28;20138;-71
2022/08/20 11:35:27;;;;;;;2.30;1.65;;;;;;;26.48;49.53;100329.22;5107122;28;20092;-70
2022/08/20 11:38:14;;;;;;;1.77;1.67;;;;;;;26.87;46.84;100324.63;5104824;28;20054;-70
2022/08/20 11:40:41;;;;;;;24.05;3.53;;;;;;;27.29;47.13;100308.91;5106634;28;20081;-70